Pagrindinis puslapis
METAR-TAF:

METAR-TAF

Oro uostai :

Elatas, Izraelis

platuma: 29-43-25N, ilguma: 35-00-41E, Aukštis: 88 m

Dabartinis oras

Ataskaita buvo paskelbta 18 minutes, ne 06:50 UTC
Vėjas 7 kt iš Šiaurės/Šiaurės Rytų, svyruoja nuo Šiaurės ir Šiaurės Rytų
Temperatūra 31°C
Drėgmė 26%
Slėgis 1011 hPa
Matomumas: 9000 m

METAR: LLER 240650Z 02007KT 350V050 9000 NSC 31/09 Q1011

Laikas: 10:08 (07:08 UTC)

Prognozė

Ataskaita buvo paskelbta 2 valandos ir 1 minutes, ne 05:07 UTC
Prognozė galioja nuo 24 metu 06 UTC su 25 metu 06 UTC
Vėjas 12 kt iš Šiaurės
Matomumas 10 km arba daugiau
nėra debesų žemiau 1500 m ir nėra kamuolinių lietaus debesų
Laikinai
nuo 24 metu 06 UTC su 24 metu 11 UTC
Vėjas 16 kt iš Šiaurės/Šiaurės Rytų
Laikinai
nuo 24 metu 11 UTC su 24 metu 18 UTC
Vėjas 15 kt iš Šiaurės/Šiaurės Vakarų

TAF: LLER 240507Z 2406/2506 01012KT CAVOK TEMPO 2406/2411 02016KT TEMPO 2411/2418 34015KT TX37/2413Z TN24/2504Z

Orai ataskaitas ir orų prognozės (METAR, TAF).

turimą stotys yra geltonos ir raudonos taškus žemėlapyje.

Perkelti pele per norėdami pamatyti stoties vardą.

Tada spustelėkite, norėdami matyti oro stebėjimo ir prognozės.

Norėdami pakeisti žemėlapį: spustelėkite ant žalios mygtukų su juodo kryžiaus žemyn,; žalią mygtuką su brūkšneliu, jei norite nutolinti; arba žalių rodyklių gretimoms žemėlapius.


METAR-TAF: